createdAt,value
2023-08-08T00:00:05.057Z,9.2
2023-08-08T00:03:05.143Z,9.3
2023-08-08T00:06:05.072Z,9.3
2023-08-08T00:09:05.071Z,9.2
2023-08-08T00:12:05.079Z,9.3
2023-08-08T00:15:05.093Z,9.3
2023-08-08T00:18:05.101Z,9.3
2023-08-08T00:21:05.090Z,9.3
2023-08-08T00:24:05.090Z,9.3
2023-08-08T00:27:05.098Z,9.3
2023-08-08T00:30:05.115Z,9.3
2023-08-08T00:33:05.134Z,9.4
2023-08-08T00:36:05.117Z,9.4
2023-08-08T00:39:05.114Z,9.4
2023-08-08T00:42:05.120Z,9.4
2023-08-08T00:45:05.185Z,9.4
2023-08-08T00:48:05.129Z,9.4
2023-08-08T00:51:05.135Z,9.4
2023-08-08T00:54:05.138Z,9.4
2023-08-08T00:57:05.149Z,9.4
2023-08-08T01:00:05.146Z,9.4
2023-08-08T01:03:05.172Z,9.4
2023-08-08T01:06:05.151Z,9.5
2023-08-08T01:09:05.159Z,9.4
2023-08-08T01:12:05.158Z,9.5
2023-08-08T01:15:05.171Z,9.5
2023-08-08T01:18:05.180Z,9.5
2023-08-08T01:21:05.168Z,9.6
2023-08-08T01:24:05.176Z,9.6
2023-08-08T01:27:05.177Z,9.6
2023-08-08T01:30:05.193Z,9.7
2023-08-08T01:33:05.189Z,9.7
2023-08-08T01:36:05.201Z,9.7
2023-08-08T01:39:05.292Z,9.8
2023-08-08T01:42:05.257Z,9.7
2023-08-08T01:45:05.203Z,9.8
2023-08-08T01:48:05.238Z,9.8
2023-08-08T01:51:05.206Z,9.8
2023-08-08T01:54:05.208Z,9.9
2023-08-08T01:57:05.223Z,9.9
2023-08-08T02:00:05.225Z,9.9
2023-08-08T02:03:05.338Z,9.9
2023-08-08T02:06:05.235Z,10
2023-08-08T02:09:05.264Z,10
2023-08-08T02:12:05.249Z,10
2023-08-08T02:15:05.258Z,10
2023-08-08T02:18:05.273Z,10
2023-08-08T02:21:05.271Z,10
2023-08-08T02:24:05.270Z,10
2023-08-08T02:27:05.280Z,10
2023-08-08T02:30:05.270Z,10
2023-08-08T02:33:05.326Z,10
2023-08-08T02:36:05.276Z,10
2023-08-08T02:39:05.295Z,10
2023-08-08T02:42:05.295Z,10.1
2023-08-08T02:45:05.313Z,10.1
2023-08-08T02:48:05.319Z,10.1
2023-08-08T02:51:05.316Z,10.1
2023-08-08T02:54:05.331Z,10.1
2023-08-08T02:57:05.328Z,10.1
2023-08-08T03:00:05.328Z,10.2
2023-08-08T03:03:05.328Z,10.2
2023-08-08T03:06:05.326Z,10.2
2023-08-08T03:09:05.344Z,10.2
2023-08-08T03:12:05.336Z,10.2
2023-08-08T03:15:05.342Z,10.3
2023-08-08T03:18:05.372Z,10.3
2023-08-08T03:21:05.346Z,10.3
2023-08-08T03:24:05.354Z,10.3
2023-08-08T03:27:05.350Z,10.3
2023-08-08T03:30:05.371Z,10.3
2023-08-08T03:33:05.376Z,10.3
2023-08-08T03:36:05.370Z,10.4
2023-08-08T03:39:05.383Z,10.4
2023-08-08T03:42:05.383Z,10.4
2023-08-08T03:45:05.388Z,10.4
2023-08-08T03:48:05.411Z,10.5
2023-08-08T03:51:05.402Z,10.5
2023-08-08T03:54:05.411Z,10.6
2023-08-08T03:57:05.412Z,10.6
2023-08-08T04:00:05.409Z,10.7
2023-08-08T04:03:05.448Z,10.7
2023-08-08T04:06:05.428Z,10.7
2023-08-08T04:09:05.427Z,10.8
2023-08-08T04:12:05.436Z,10.8
2023-08-08T04:15:05.439Z,10.9
2023-08-08T04:18:05.502Z,10.9
2023-08-08T04:21:05.444Z,11
2023-08-08T04:24:05.445Z,11
2023-08-08T04:27:05.455Z,11
2023-08-08T04:30:05.459Z,11.1
2023-08-08T04:33:05.453Z,11.1
2023-08-08T04:36:05.458Z,11.1
2023-08-08T04:39:05.466Z,11.1
2023-08-08T04:42:05.473Z,11.1
2023-08-08T04:45:05.481Z,11.1
2023-08-08T04:48:05.488Z,11.2
2023-08-08T04:51:05.493Z,11.1
2023-08-08T04:54:05.494Z,11.2
2023-08-08T04:57:05.493Z,11.2
2023-08-08T05:00:05.498Z,11.2
2023-08-08T05:03:05.575Z,11.3
2023-08-08T05:06:05.518Z,11.2
2023-08-08T05:09:05.523Z,11.3
2023-08-08T05:12:05.525Z,11.3
2023-08-08T05:15:05.522Z,11.3
2023-08-08T05:18:05.559Z,11.3
2023-08-08T05:21:05.533Z,11.4
2023-08-08T05:24:05.621Z,11.4
2023-08-08T05:27:05.537Z,11.4
2023-08-08T05:30:05.538Z,11.4
2023-08-08T05:33:05.577Z,11.4
2023-08-08T05:36:05.553Z,11.5
2023-08-08T05:39:05.563Z,11.6
2023-08-08T05:42:05.695Z,11.6
2023-08-08T05:45:05.567Z,11.6
2023-08-08T05:48:05.728Z,11.6
2023-08-08T05:51:05.573Z,11.7
2023-08-08T05:54:05.600Z,11.8
2023-08-08T05:57:05.582Z,11.9
2023-08-08T06:00:05.578Z,12.1
2023-08-08T06:03:05.611Z,12
2023-08-08T06:06:05.595Z,11.9
2023-08-08T06:09:05.581Z,11.9
2023-08-08T06:12:05.594Z,11.9
2023-08-08T06:15:05.617Z,11.9
2023-08-08T06:18:05.656Z,11.9
2023-08-08T06:21:05.633Z,11.9
2023-08-08T06:24:05.605Z,11.9
2023-08-08T06:27:05.621Z,12
2023-08-08T06:30:05.628Z,12.1
2023-08-08T06:33:05.645Z,12.1
2023-08-08T06:36:05.638Z,12.4
2023-08-08T06:39:05.641Z,12.6
2023-08-08T06:42:05.626Z,12.5
2023-08-08T06:45:05.648Z,12.5
2023-08-08T06:48:05.690Z,12.7
2023-08-08T06:51:05.661Z,12.7
2023-08-08T06:54:05.669Z,12.7
2023-08-08T06:57:05.664Z,12.6
2023-08-08T07:00:05.664Z,12.7
2023-08-08T07:03:05.835Z,12.7
2023-08-08T07:06:05.672Z,12.7
2023-08-08T07:09:05.687Z,12.5
2023-08-08T07:12:05.686Z,12.6
2023-08-08T07:15:05.680Z,12.5
2023-08-08T07:18:05.809Z,12.5
2023-08-08T07:21:05.705Z,12.6
2023-08-08T07:24:05.697Z,12.5
2023-08-08T07:27:05.705Z,12.5
2023-08-08T07:30:05.700Z,12.7
2023-08-08T07:33:05.751Z,12.7
2023-08-08T07:36:05.712Z,12.6
2023-08-08T07:39:05.706Z,12.6
2023-08-08T07:42:05.721Z,12.4
2023-08-08T07:45:05.717Z,12.3
2023-08-08T07:48:05.737Z,12.1
2023-08-08T07:51:05.728Z,12
2023-08-08T07:54:05.725Z,12.1
2023-08-08T07:57:05.734Z,12.1
2023-08-08T08:00:05.717Z,12.3
2023-08-08T08:03:05.786Z,12.4
2023-08-08T08:06:05.733Z,12.4
2023-08-08T08:09:05.728Z,12.6
2023-08-08T08:12:05.751Z,12.7
2023-08-08T08:15:05.772Z,13
2023-08-08T08:18:05.795Z,13
2023-08-08T08:21:05.776Z,12.6
2023-08-08T08:24:05.753Z,12.3
2023-08-08T08:27:05.778Z,12.2
2023-08-08T08:30:05.802Z,12.4
2023-08-08T08:33:05.828Z,12.6
2023-08-08T08:36:05.817Z,12.4
2023-08-08T08:39:05.849Z,12.4
2023-08-08T08:42:05.935Z,12.3
2023-08-08T08:45:05.859Z,12.1
2023-08-08T08:48:05.899Z,11.9
2023-08-08T08:51:05.868Z,12.1
2023-08-08T08:54:05.877Z,11.6
2023-08-08T08:57:05.874Z,11.5
2023-08-08T09:00:05.888Z,11.5
2023-08-08T09:03:05.967Z,11.5
2023-08-08T09:06:05.882Z,11.9
2023-08-08T09:09:16.087Z,11.9
2023-08-08T09:12:05.895Z,12.2
2023-08-08T09:15:05.930Z,12.2
2023-08-08T09:18:05.942Z,12.4
2023-08-08T09:21:05.900Z,12.2
2023-08-08T09:24:05.923Z,12.3
2023-08-08T09:27:05.929Z,12
2023-08-08T09:30:05.941Z,12.3
2023-08-08T09:33:05.981Z,12.3
2023-08-08T09:36:05.958Z,12.3
2023-08-08T09:39:06.113Z,12.3
2023-08-08T09:42:05.970Z,12.4
2023-08-08T09:45:05.972Z,12.3
2023-08-08T09:48:05.996Z,12.1
2023-08-08T09:51:05.994Z,11.5
2023-08-08T09:54:05.983Z,11.7
2023-08-08T09:57:05.981Z,11.8
2023-08-08T10:00:05.978Z,11.2
2023-08-08T10:03:06.053Z,11.2
2023-08-08T10:06:05.992Z,11.5
2023-08-08T10:09:05.997Z,11.5
2023-08-08T10:12:06.006Z,11.4
2023-08-08T10:15:06.007Z,11.2
2023-08-08T10:18:06.022Z,11
2023-08-08T10:21:06.031Z,10.9
2023-08-08T10:24:06.021Z,11.9
2023-08-08T10:27:06.020Z,12.5
2023-08-08T10:30:06.031Z,12.5
2023-08-08T10:33:06.075Z,12.2
2023-08-08T10:36:06.042Z,11.7
2023-08-08T10:39:06.055Z,11.5
2023-08-08T10:42:06.065Z,11.7
2023-08-08T10:45:06.073Z,12
2023-08-08T10:48:06.081Z,12.5
2023-08-08T10:51:06.073Z,13
2023-08-08T10:54:06.084Z,12
2023-08-08T10:57:06.083Z,12.2
2023-08-08T11:00:06.096Z,12.4
2023-08-08T11:03:06.092Z,12.5
2023-08-08T11:06:06.091Z,12.3
2023-08-08T11:09:06.097Z,12.2
2023-08-08T11:12:06.101Z,12.3
2023-08-08T11:15:06.135Z,12.6
2023-08-08T11:18:06.121Z,12.7
2023-08-08T11:21:16.966Z,12.8
2023-08-08T11:24:06.117Z,12.3
2023-08-08T11:27:06.124Z,12
2023-08-08T11:30:07.769Z,11.8
2023-08-08T11:36:07.840Z,11.8
2023-08-08T11:39:06.159Z,11.8
2023-08-08T11:42:06.336Z,11.6
2023-08-08T11:45:06.138Z,12
2023-08-08T11:48:06.162Z,12.3
2023-08-08T11:51:06.156Z,12.4
2023-08-08T11:54:06.165Z,12.7
2023-08-08T11:57:06.167Z,12.8
2023-08-08T12:00:06.165Z,12.7
2023-08-08T12:03:06.232Z,12.9
2023-08-08T12:06:06.173Z,13
2023-08-08T12:09:06.172Z,13.3
2023-08-08T12:12:08.509Z,13.6
2023-08-08T12:18:06.217Z,13.5
2023-08-08T12:21:06.195Z,13.5
2023-08-08T12:24:06.205Z,12.5
2023-08-08T12:27:06.195Z,12.3
2023-08-08T12:30:06.213Z,12.2
2023-08-08T12:33:06.219Z,12.3
2023-08-08T12:36:06.216Z,11.3
2023-08-08T12:39:06.220Z,12
2023-08-08T12:42:06.241Z,12.2
2023-08-08T12:45:06.227Z,11.7
2023-08-08T12:48:06.248Z,11.2
2023-08-08T12:51:06.237Z,11.3
2023-08-08T12:54:06.239Z,12.2
2023-08-08T12:57:06.244Z,13.1
2023-08-08T13:00:06.257Z,13.2
2023-08-08T13:03:06.274Z,13.2
2023-08-08T13:06:06.267Z,13
2023-08-08T13:09:08.759Z,12.9
2023-08-08T13:12:06.275Z,11.8
2023-08-08T13:15:06.977Z,11.4
2023-08-08T13:18:06.360Z,11.5
2023-08-08T13:21:06.916Z,11.4
2023-08-08T13:24:06.288Z,11.7
2023-08-08T13:27:06.285Z,11.6
2023-08-08T13:30:06.303Z,11.8
2023-08-08T13:33:06.311Z,12
2023-08-08T13:36:06.303Z,12.1
2023-08-08T13:39:06.309Z,11.6
2023-08-08T13:42:06.314Z,12.2
2023-08-08T13:45:06.323Z,13.7
2023-08-08T13:48:06.336Z,13.3
2023-08-08T13:51:06.338Z,12.7
2023-08-08T13:54:06.341Z,12.7
2023-08-08T13:57:06.334Z,12.7
2023-08-08T14:00:06.353Z,12.7
2023-08-08T14:03:06.388Z,12.4
2023-08-08T14:06:06.353Z,13
2023-08-08T14:09:06.360Z,12.5
2023-08-08T14:12:06.368Z,12.6
2023-08-08T14:15:06.368Z,12.7
2023-08-08T14:18:06.397Z,12.9
2023-08-08T14:21:06.382Z,13.1
2023-08-08T14:24:06.380Z,13.1
2023-08-08T14:27:06.383Z,12.8
2023-08-08T14:30:06.398Z,13
2023-08-08T14:33:06.398Z,13.2
2023-08-08T14:36:06.410Z,13.4
2023-08-08T14:39:06.397Z,13.3
2023-08-08T14:42:06.410Z,13.5
2023-08-08T14:45:06.407Z,13.5
2023-08-08T14:48:06.466Z,13.4
2023-08-08T14:51:06.421Z,13.3
2023-08-08T14:54:06.418Z,13.3
2023-08-08T14:57:06.430Z,13.2
2023-08-08T15:00:06.430Z,13.1
2023-08-08T15:03:06.461Z,12.9
2023-08-08T15:06:06.439Z,12.7
2023-08-08T15:09:06.445Z,12.7
2023-08-08T15:12:06.433Z,12.8
2023-08-08T15:15:06.456Z,12.7
2023-08-08T15:18:06.491Z,12.7
2023-08-08T15:21:06.450Z,12.8
2023-08-08T15:24:06.469Z,12.6
2023-08-08T15:27:06.468Z,12.7
2023-08-08T15:30:06.474Z,12.8
2023-08-08T15:33:06.502Z,13
2023-08-08T15:36:06.474Z,13
2023-08-08T15:39:06.493Z,12.9
2023-08-08T15:42:06.525Z,12.8
2023-08-08T15:45:06.502Z,12.9
2023-08-08T15:48:06.522Z,13
2023-08-08T15:51:06.518Z,13.2
2023-08-08T15:54:06.513Z,13.2
2023-08-08T15:57:07.711Z,12.9
2023-08-08T16:00:06.520Z,12.6
2023-08-08T16:03:06.622Z,12.4
2023-08-08T16:06:06.559Z,12.2
2023-08-08T16:09:06.522Z,12
2023-08-08T16:12:06.540Z,12
2023-08-08T16:15:06.538Z,11.8
2023-08-08T16:18:06.669Z,11.8
2023-08-08T16:21:06.546Z,11.6
2023-08-08T16:24:06.563Z,11.5
2023-08-08T16:27:06.797Z,11.7
2023-08-08T16:30:06.564Z,11.6
2023-08-08T16:33:06.583Z,11.5
2023-08-08T16:36:06.573Z,11.8
2023-08-08T16:39:16.650Z,11.8
2023-08-08T16:42:06.592Z,11.7
2023-08-08T16:45:06.592Z,11.6
2023-08-08T16:48:06.605Z,11.7
2023-08-08T16:51:06.596Z,11.7
2023-08-08T16:54:06.600Z,11.7
2023-08-08T16:57:06.607Z,11.7
2023-08-08T17:00:06.622Z,11.6
2023-08-08T17:03:06.754Z,11.5
2023-08-08T17:06:07.133Z,11.5
2023-08-08T17:09:06.638Z,11.4
2023-08-08T17:12:06.769Z,11.3
2023-08-08T17:15:06.632Z,11.4
2023-08-08T17:18:06.667Z,11.5
2023-08-08T17:21:06.699Z,11.5
2023-08-08T17:24:06.639Z,11.4
2023-08-08T17:27:06.652Z,11.5
2023-08-08T17:30:06.653Z,11.4
2023-08-08T17:33:06.689Z,11.4
2023-08-08T17:36:06.655Z,11.2
2023-08-08T17:39:06.669Z,11.2
2023-08-08T17:42:21.937Z,11.2
2023-08-08T17:45:06.689Z,11.2
2023-08-08T17:48:06.721Z,11.1
2023-08-08T17:51:06.690Z,11
2023-08-08T17:54:06.678Z,11.1
2023-08-08T17:57:06.693Z,11
2023-08-08T18:00:06.700Z,11
2023-08-08T18:03:06.758Z,11
2023-08-08T18:06:06.696Z,11.1
2023-08-08T18:09:06.706Z,11
2023-08-08T18:12:06.703Z,11
2023-08-08T18:15:06.707Z,11
2023-08-08T18:18:06.732Z,11
2023-08-08T18:21:06.714Z,11
2023-08-08T18:24:06.710Z,11.1
2023-08-08T18:27:06.713Z,11
2023-08-08T18:30:06.727Z,11
2023-08-08T18:33:06.778Z,11.1
2023-08-08T18:36:06.738Z,11
2023-08-08T18:39:06.748Z,11
2023-08-08T18:42:06.748Z,11
2023-08-08T18:45:06.763Z,10.9
2023-08-08T18:48:06.825Z,11
2023-08-08T18:51:06.803Z,11
2023-08-08T18:54:06.779Z,11
2023-08-08T18:57:06.781Z,11
2023-08-08T19:00:06.786Z,11.1
2023-08-08T19:03:06.912Z,11.1
2023-08-08T19:06:06.780Z,11.1
2023-08-08T19:09:06.786Z,11.2
2023-08-08T19:12:06.807Z,11.3
2023-08-08T19:15:06.800Z,11.3
2023-08-08T19:18:06.826Z,11.4
2023-08-08T19:21:06.806Z,11.4
2023-08-08T19:24:06.809Z,11.4
2023-08-08T19:27:06.832Z,11.4
2023-08-08T19:30:08.106Z,11.4
2023-08-08T19:33:06.921Z,11.4
2023-08-08T19:36:06.831Z,11.3
2023-08-08T19:39:06.846Z,11.3
2023-08-08T19:42:06.833Z,11.3
2023-08-08T19:45:06.847Z,11.4
2023-08-08T19:48:06.933Z,11.5
2023-08-08T19:51:06.865Z,11.5
2023-08-08T19:54:06.867Z,11.4
2023-08-08T19:57:06.873Z,11.4
2023-08-08T20:00:06.869Z,11.4
2023-08-08T20:03:06.939Z,11.3
2023-08-08T20:06:07.103Z,11.3
2023-08-08T20:09:06.891Z,11.2
2023-08-08T20:12:06.884Z,11.2
2023-08-08T20:15:06.900Z,11.1
2023-08-08T20:18:06.941Z,11.2
2023-08-08T20:21:06.895Z,11.2
2023-08-08T20:24:07.025Z,11.2
2023-08-08T20:27:07.123Z,11.2
2023-08-08T20:30:06.904Z,11.1
2023-08-08T20:33:06.936Z,11.2
2023-08-08T20:36:06.910Z,11.2
2023-08-08T20:39:06.926Z,11.3
2023-08-08T20:42:06.924Z,11.3
2023-08-08T20:45:06.925Z,11.4
2023-08-08T20:48:06.991Z,11.3
2023-08-08T20:51:06.943Z,11.3
2023-08-08T20:54:06.947Z,11.3
2023-08-08T20:57:06.948Z,11.4
2023-08-08T21:00:06.958Z,11.3
2023-08-08T21:03:07.127Z,11.3
2023-08-08T21:06:06.966Z,11.4
2023-08-08T21:09:06.968Z,11.4
2023-08-08T21:12:06.973Z,11.4
2023-08-08T21:15:06.972Z,11.4
2023-08-08T21:18:07.021Z,11.4
2023-08-08T21:21:06.979Z,11.4
2023-08-08T21:24:06.997Z,11.4
2023-08-08T21:27:07.102Z,11.4
2023-08-08T21:30:06.993Z,11.4
2023-08-08T21:33:07.007Z,11.4
2023-08-08T21:36:06.998Z,11.4
2023-08-08T21:39:07.006Z,11.4
2023-08-08T21:42:07.016Z,11.5
2023-08-08T21:45:07.022Z,11.6
2023-08-08T21:48:07.063Z,11.6
2023-08-08T21:51:07.014Z,11.6
2023-08-08T21:54:07.025Z,11.7
2023-08-08T21:57:07.028Z,11.7
2023-08-08T22:00:07.036Z,11.7
2023-08-08T22:03:07.060Z,11.7
2023-08-08T22:06:07.050Z,11.7
2023-08-08T22:09:07.040Z,11.7
2023-08-08T22:15:07.047Z,11.8
2023-08-08T22:18:07.060Z,11.8
2023-08-08T22:21:07.046Z,11.7
2023-08-08T22:24:07.051Z,11.7
2023-08-08T22:27:07.054Z,11.7
2023-08-08T22:30:07.049Z,11.7
2023-08-08T22:33:07.067Z,11.7
2023-08-08T22:36:07.058Z,11.7
2023-08-08T22:39:07.069Z,11.6
2023-08-08T22:42:07.101Z,11.6
2023-08-08T22:45:07.124Z,11.6
2023-08-08T22:48:07.128Z,11.6
2023-08-08T22:51:07.130Z,11.6
2023-08-08T22:54:07.154Z,11.5
2023-08-08T22:57:07.150Z,11.5
2023-08-08T23:00:07.155Z,11.5
2023-08-08T23:03:07.217Z,11.4
2023-08-08T23:06:07.153Z,11.4
2023-08-08T23:09:07.164Z,11.4
2023-08-08T23:12:07.175Z,11.4
2023-08-08T23:15:07.187Z,11.4
2023-08-08T23:18:07.226Z,11.4
2023-08-08T23:21:07.197Z,11.4
2023-08-08T23:24:07.199Z,11.4
2023-08-08T23:27:07.206Z,11.4
2023-08-08T23:30:07.207Z,11.4
2023-08-08T23:33:07.220Z,11.4
2023-08-08T23:36:07.218Z,11.4
2023-08-08T23:39:07.229Z,11.5
2023-08-08T23:42:07.252Z,11.4
2023-08-08T23:45:07.231Z,11.4
2023-08-08T23:48:07.317Z,11.4
2023-08-08T23:51:07.264Z,11.5
2023-08-08T23:54:07.260Z,11.5
2023-08-08T23:57:07.264Z,11.5
